Carmi, IL

1:00 PM CDT on May 21, 2018 (GMT -0500)
Carmi Municipal

Weather History for KCUL - March, 2014

Change the Weather History Date:

Sunday, March 23, 2014

  Actual Average (KEHR) Record (KEHR)
Temperature  
Mean Temperature 38 °F -  
Max Temperature 45 °F 60 °F 83 °F (1939)
Min Temperature 29 °F 36 °F 17 °F (1968)
Degree Days  
Heating Degree Days 28    
Moisture  
Dew Point 25 °F    
Average Humidity 61    
Maximum Humidity 74    
Minimum Humidity 38    
Precipitation  
Precipitation 0.00 in - - ()
Sea Level Pressure  
Sea Level Pressure 30.33 in    
Wind  
Wind Speed 12 mph (NNW)    
Max Wind Speed 18 mph    
Max Gust Speed 25 mph    
Visibility 10 miles    
Events      
Averages and records for this station are not official NWS values.
T = Trace of Precipitation, MM = Missing Value Source: NWS Daily Summary

Daily Weather History Graph

Daily Weather History Graph

Search for Another Location

Airport or City:

Astronomy

Mar. 23, 2014 Rise Set
Actual Time 6:51 AM CDT 7:07 PM CDT
Civil Twilight 6:25 AM CDT 7:33 PM CDT
Nautical Twilight 5:54 AM CDT 8:04 PM CDT
Astronomical Twilight 5:22 AM CDT 8:35 PM CDT
Moon 1:19 AM CDT (3/23) 11:36 AM CDT (3/23)
Length of Visible Light 13h 08m
Length of Day
12h 15m
Waning Gibbous, 54% of the Moon is Illuminated
Mar 23
Waning Gibbous
Mar 23
Last Quarter
Mar 30
New
Apr 7
First Quarter
Apr 15
Full

Hourly Weather History & Observations

Time (CDT) Temp. Windchill Dew Point Humidity Pressure Visibility Wind Dir Wind Speed Gust Speed Precip Events Conditions
12:15 AM 40.5 °F 33.6 °F 32.4 °F 73% 30.24 in 10.0 mi North 11.5 mph - N/A   Clear
12:35 AM 40.5 °F 34.6 °F 32.0 °F 72% 30.26 in 10.0 mi NNW 9.2 mph - N/A   Clear
12:55 AM 40.5 °F 34.6 °F 32.0 °F 72% 30.26 in 10.0 mi NNW 9.2 mph - N/A   Clear
1:15 AM 40.1 °F 33.6 °F 31.6 °F 72% 30.26 in 10.0 mi North 10.4 mph - N/A   Clear
1:35 AM 40.3 °F 33.9 °F 31.5 °F 71% 30.26 in 10.0 mi North 10.4 mph - N/A   Clear
1:55 AM 40.1 °F 33.6 °F 31.6 °F 72% 30.27 in 10.0 mi North 10.4 mph 17.3 mph N/A   Clear
2:15 AM 40.1 °F 33.2 °F 31.5 °F 71% 30.27 in 10.0 mi North 11.5 mph - N/A   Clear
2:35 AM 39.6 °F 31.7 °F 32.0 °F 74% 30.26 in 10.0 mi NNW 13.8 mph - N/A   Clear
2:55 AM 39.4 °F 31.1 °F 31.8 °F 74% 30.27 in 10.0 mi North 15.0 mph 18.4 mph N/A   Clear
3:15 AM 39.2 °F 30.5 °F 30.6 °F 71% 30.27 in 10.0 mi North 16.1 mph - N/A   Scattered Clouds
3:35 AM 38.8 °F 29.4 °F 29.8 °F 70% 30.26 in 10.0 mi North 18.4 mph 21.9 mph N/A   Overcast
3:55 AM 38.3 °F 29.3 °F 27.9 °F 66% 30.27 in 10.0 mi North 16.1 mph 20.7 mph N/A   Mostly Cloudy
4:15 AM 37.9 °F 29.2 °F 27.7 °F 67% 30.27 in 10.0 mi North 15.0 mph 21.9 mph N/A   Overcast
4:35 AM 37.6 °F 28.4 °F 28.0 °F 68% 30.27 in 10.0 mi North 16.1 mph 19.6 mph N/A   Mostly Cloudy
4:55 AM 37.4 °F 29.3 °F 28.8 °F 71% 30.27 in 10.0 mi NNW 12.7 mph 18.4 mph N/A   Scattered Clouds
5:15 AM 36.9 °F 27.5 °F 28.2 °F 71% 30.28 in 10.0 mi NNW 16.1 mph - N/A   Mostly Cloudy
5:35 AM 36.5 °F 27.8 °F 27.9 °F 71% 30.29 in 10.0 mi North 13.8 mph - N/A   Overcast
5:55 AM 36.0 °F 26.7 °F 27.3 °F 71% 30.30 in 10.0 mi NNW 15.0 mph - N/A   Mostly Cloudy
6:15 AM 35.4 °F 26.0 °F 26.8 °F 71% 30.31 in 10.0 mi NNW 15.0 mph - N/A   Scattered Clouds
6:35 AM 35.1 °F 25.2 °F 26.4 °F 71% 30.31 in 10.0 mi NNW 16.1 mph - N/A   Clear
6:55 AM 34.7 °F 25.1 °F 26.6 °F 72% 30.33 in 10.0 mi NNW 15.0 mph - N/A   Clear
7:15 AM 34.5 °F 26.7 °F 26.4 °F 72% 30.34 in 10.0 mi NNW 10.4 mph - N/A   Clear
7:35 AM 34.2 °F 24.8 °F 26.6 °F 74% 30.35 in 10.0 mi NNW 13.8 mph - N/A   Mostly Cloudy
7:55 AM 34.5 °F 25.3 °F 26.6 °F 73% 30.36 in 10.0 mi NNW 13.8 mph - N/A   Mostly Cloudy
8:15 AM 34.9 °F 25.3 °F 26.6 °F 72% 30.36 in 10.0 mi NNW 15.0 mph 18.4 mph N/A   Mostly Cloudy
8:35 AM 35.6 °F 26.2 °F 26.6 °F 70% 30.37 in 10.0 mi NNW 15.0 mph 18.4 mph N/A   Mostly Cloudy
8:55 AM 35.4 °F 25.3 °F 26.1 °F 69% 30.38 in 10.0 mi NW 17.3 mph 25.3 mph N/A   Scattered Clouds
9:15 AM 35.8 °F 26.9 °F 26.2 °F 68% 30.38 in 10.0 mi NNW 13.8 mph - N/A   Clear
9:35 AM 36.9 °F 27.1 °F 26.8 °F 67% 30.37 in 10.0 mi NNW 17.3 mph 24.2 mph N/A   Clear
9:55 AM 37.6 °F 28.8 °F 27.3 °F 66% 30.38 in 10.0 mi North 15.0 mph 18.4 mph N/A   Clear
10:15 AM 38.5 °F 29.6 °F 28.0 °F 66% 30.37 in 10.0 mi North 16.1 mph 19.6 mph N/A   Clear
10:35 AM 39.4 °F 32.7 °F 28.4 °F 65% 30.38 in 10.0 mi North 10.4 mph - N/A   Scattered Clouds
10:55 AM 39.0 °F 31.0 °F 28.6 °F 66% 30.38 in 10.0 mi NNW 13.8 mph - N/A   Scattered Clouds
11:15 AM 39.6 °F 31.0 °F 28.2 °F 64% 30.39 in 10.0 mi NNW 16.1 mph 20.7 mph N/A   Mostly Cloudy
11:35 AM 39.6 °F 32.1 °F 27.1 °F 61% 30.39 in 10.0 mi North 12.7 mph 19.6 mph N/A   Mostly Cloudy
11:55 AM 40.6 °F 33.0 °F 27.0 °F 58% 30.39 in 10.0 mi NNW 13.8 mph 21.9 mph N/A   Scattered Clouds
12:15 PM 40.6 °F 32.7 °F 27.1 °F 59% 30.38 in 10.0 mi NNW 15.0 mph - N/A   Mostly Cloudy
12:35 PM 41.4 °F 33.6 °F 26.8 °F 56% 30.38 in 10.0 mi NW 15.0 mph 19.6 mph N/A   Mostly Cloudy
12:55 PM 41.7 °F 34.1 °F 25.3 °F 52% 30.38 in 10.0 mi North 15.0 mph - N/A   Scattered Clouds
1:15 PM 42.6 °F 36.3 °F 24.8 °F 49% 30.37 in 10.0 mi NNW 11.5 mph - N/A   Scattered Clouds
1:35 PM 42.3 °F 35.9 °F 25.5 °F 52% 30.36 in 10.0 mi NNW 11.5 mph 20.7 mph N/A   Clear
1:55 PM 43.3 °F 37.2 °F 25.0 °F 48% 30.36 in 10.0 mi North 11.5 mph 17.3 mph N/A   Scattered Clouds
2:15 PM 43.5 °F 36.1 °F 24.8 °F 48% 30.35 in 10.0 mi NNW 16.1 mph 19.6 mph N/A   Clear
2:35 PM 43.7 °F 39.1 °F 24.3 °F 46% 30.35 in 10.0 mi NNW 8.1 mph 19.6 mph N/A   Clear
2:55 PM 43.9 °F 36.5 °F 22.6 °F 43% 30.34 in 10.0 mi NNW 16.1 mph 19.6 mph N/A   Clear
3:20 PM 45.0 °F 37.6 °F 24.8 °F 45% 30.33 in 10.0 mi NNW 17.3 mph 20.7 mph N/A   Clear
3:35 PM 44.2 °F 38.0 °F 22.1 °F 42% 30.33 in 10.0 mi NNW 12.7 mph 21.9 mph N/A   Clear
3:55 PM 44.8 °F 38.3 °F 23.2 °F 43% 30.33 in 10.0 mi North 13.8 mph - N/A   Clear
4:15 PM 45.0 °F 38.9 °F 22.6 °F 41% 30.32 in 10.0 mi North 12.7 mph 23.0 mph N/A   Clear
4:35 PM 45.0 °F 40.6 °F 21.4 °F 39% 30.32 in 10.0 mi NW 8.1 mph 21.9 mph N/A   Clear
4:55 PM 44.8 °F 39.4 °F 20.3 °F 38% 30.32 in 10.0 mi NNW 10.4 mph 19.6 mph N/A   Clear
5:15 PM 44.8 °F 39.9 °F 20.3 °F 38% 30.32 in 10.0 mi North 9.2 mph 17.3 mph N/A   Clear
5:35 PM 44.1 °F 38.1 °F 19.9 °F 38% 30.32 in 10.0 mi North 11.5 mph 16.1 mph N/A   Clear
5:55 PM 43.3 °F 37.2 °F 19.9 °F 39% 30.33 in 10.0 mi North 11.5 mph - N/A   Clear
6:15 PM 42.8 °F 35.8 °F 19.6 °F 40% 30.33 in 10.0 mi North 13.8 mph - N/A   Clear
6:35 PM 41.9 °F 35.9 °F 19.8 °F 41% 30.33 in 10.0 mi North 10.4 mph - N/A   Clear
6:55 PM 40.8 °F 35.0 °F 19.9 °F 43% 30.33 in 10.0 mi North 9.2 mph - N/A   Clear
7:15 PM 38.8 °F 32.1 °F 20.7 °F 48% 30.34 in 10.0 mi North 10.4 mph - N/A   Clear
7:35 PM 37.4 °F 31.4 °F 21.2 °F 52% 30.34 in 10.0 mi North 8.1 mph - N/A   Clear
7:55 PM 36.9 °F 29.6 °F 20.8 °F 52% 30.35 in 10.0 mi North 10.4 mph - N/A   Clear
8:15 PM 36.1 °F 29.3 °F 21.2 °F 55% 30.35 in 10.0 mi North 9.2 mph - N/A   Clear
8:35 PM 35.6 °F 29.2 °F 21.6 °F 57% 30.36 in 10.0 mi North 8.1 mph - N/A   Clear
8:55 PM 34.7 °F 27.5 °F 21.4 °F 58% 30.36 in 10.0 mi North 9.2 mph - N/A   Clear
9:15 PM 34.3 °F 28.4 °F 21.7 °F 60% 30.37 in 10.0 mi North 6.9 mph - N/A   Clear
9:35 PM 34.0 °F 28.0 °F 21.7 °F 61% 30.37 in 10.0 mi North 6.9 mph - N/A   Clear
9:55 PM 32.5 °F 27.1 °F 21.9 °F 65% 30.37 in 10.0 mi North 5.8 mph - N/A   Clear
10:15 PM 32.0 °F 26.4 °F 21.7 °F 66% 30.38 in 10.0 mi North 5.8 mph - N/A   Clear
10:35 PM 31.8 °F 25.4 °F 21.4 °F 65% 30.38 in 10.0 mi North 6.9 mph - N/A   Clear
11:00 PM 31.3 °F 25.6 °F 21.9 °F 68% 30.37 in 10.0 mi North 5.8 mph - N/A   Clear
11:15 PM 31.1 °F 25.4 °F 21.9 °F 69% 30.37 in 10.0 mi North 5.8 mph - N/A   Clear
11:35 PM 30.6 °F 25.8 °F 21.6 °F 69% 30.37 in 10.0 mi North 4.6 mph - N/A   Clear
11:55 PM 29.5 °F 23.4 °F 21.7 °F 73% 30.37 in 10.0 mi North 5.8 mph - N/A   Clear